createdAt,value
2018-10-21T00:01:52.802Z,65.94
2018-10-21T00:04:22.788Z,65.74
2018-10-21T00:06:52.739Z,65.92
2018-10-21T00:09:23.021Z,65.80
2018-10-21T00:11:53.023Z,66.03
2018-10-21T00:14:23.008Z,65.76
2018-10-21T00:16:52.987Z,65.83
2018-10-21T00:19:22.993Z,65.61
2018-10-21T00:21:52.952Z,65.38
2018-10-21T00:24:22.909Z,65.65
2018-10-21T00:26:52.849Z,65.86
2018-10-21T00:29:22.762Z,65.70
2018-10-21T00:31:52.789Z,65.61
2018-10-21T00:34:22.734Z,65.54
2018-10-21T00:36:52.946Z,65.58
2018-10-21T00:39:22.842Z,65.59
2018-10-21T00:41:52.840Z,65.76
2018-10-21T00:44:22.848Z,65.84
2018-10-21T00:46:52.794Z,66.11
2018-10-21T00:49:22.810Z,65.82
2018-10-21T00:51:52.775Z,65.79
2018-10-21T00:54:22.758Z,65.67
2018-10-21T00:56:52.685Z,65.75
2018-10-21T00:59:22.627Z,65.87
2018-10-21T01:01:52.590Z,65.88
2018-10-21T01:04:22.602Z,66.00
2018-10-21T01:06:52.628Z,65.96
2018-10-21T01:09:22.584Z,65.96
2018-10-21T01:11:52.595Z,65.84
2018-10-21T01:14:22.526Z,65.70
2018-10-21T01:16:52.439Z,65.78
2018-10-21T01:19:22.393Z,65.91
2018-10-21T01:21:52.383Z,65.82
2018-10-21T01:24:22.347Z,66.01
2018-10-21T01:26:52.274Z,65.93
2018-10-21T01:29:22.222Z,66.54
2018-10-21T01:31:52.149Z,66.08
2018-10-21T01:34:21.991Z,66.26
2018-10-21T01:36:52.118Z,65.77
2018-10-21T01:39:36.664Z,65.92
2018-10-21T01:42:06.547Z,65.91
2018-10-21T01:44:36.671Z,65.65
2018-10-21T01:47:07.118Z,65.81
2018-10-21T01:49:37.789Z,65.94
2018-10-21T01:52:07.739Z,65.85
2018-10-21T01:54:37.695Z,66.10
2018-10-21T01:57:07.687Z,65.97
2018-10-21T01:59:37.710Z,66.32
2018-10-21T02:02:07.699Z,66.28
2018-10-21T02:04:37.820Z,66.33
2018-10-21T02:07:07.771Z,66.09
2018-10-21T02:09:38.569Z,66.54
2018-10-21T02:12:08.560Z,66.24
2018-10-21T02:14:38.510Z,66.17
2018-10-21T02:17:08.491Z,65.89
2018-10-21T02:19:38.403Z,66.17
2018-10-21T02:22:08.370Z,66.18
2018-10-21T02:24:38.390Z,66.24
2018-10-21T02:27:08.453Z,66.25
2018-10-21T02:29:38.306Z,66.82
2018-10-21T02:32:08.308Z,66.49
2018-10-21T02:34:38.213Z,66.59
2018-10-21T02:37:08.266Z,66.45
2018-10-21T02:39:38.187Z,66.09
2018-10-21T02:42:08.112Z,66.33
2018-10-21T02:44:38.004Z,66.71
2018-10-21T02:47:14.377Z,66.60
2018-10-21T02:49:44.098Z,66.57
2018-10-21T02:52:14.433Z,66.47
2018-10-21T02:54:44.746Z,67.10
2018-10-21T02:57:15.246Z,66.78
2018-10-21T02:59:44.993Z,66.80
2018-10-21T03:02:14.952Z,66.85
2018-10-21T03:04:44.909Z,66.76
2018-10-21T03:07:14.933Z,66.87
2018-10-21T03:09:44.911Z,66.59
2018-10-21T03:12:14.895Z,66.76
2018-10-21T03:14:44.852Z,66.91
2018-10-21T03:17:14.839Z,66.94
2018-10-21T03:19:44.786Z,67.05
2018-10-21T03:22:14.772Z,67.13
2018-10-21T03:24:44.651Z,67.12
2018-10-21T03:27:14.639Z,66.72
2018-10-21T03:29:44.578Z,66.76
2018-10-21T03:32:14.594Z,66.93
2018-10-21T03:34:44.542Z,67.06
2018-10-21T03:37:14.483Z,66.80
2018-10-21T03:39:44.825Z,66.84
2018-10-21T03:42:14.796Z,67.09
2018-10-21T03:44:44.734Z,67.36
2018-10-21T03:47:14.727Z,67.41
2018-10-21T03:49:44.730Z,67.61
2018-10-21T03:52:14.763Z,67.50
2018-10-21T03:54:47.857Z,67.54
2018-10-21T03:57:17.790Z,67.85
2018-10-21T03:59:47.713Z,67.65
2018-10-21T04:02:17.678Z,67.54
2018-10-21T04:04:47.657Z,67.62
2018-10-21T04:07:17.604Z,67.88
2018-10-21T04:09:47.590Z,67.48
2018-10-21T04:12:17.629Z,67.60
2018-10-21T04:14:47.572Z,67.34
2018-10-21T04:17:17.517Z,67.28
2018-10-21T04:19:47.557Z,67.60
2018-10-21T04:22:17.657Z,67.93
2018-10-21T04:24:47.540Z,67.44
2018-10-21T04:27:17.490Z,67.22
2018-10-21T04:29:47.427Z,67.49
2018-10-21T04:32:17.385Z,67.36
2018-10-21T04:34:47.387Z,67.16
2018-10-21T04:37:33.847Z,67.26
2018-10-21T04:40:17.552Z,67.53
2018-10-21T04:42:48.089Z,67.61
2018-10-21T04:45:20.079Z,67.90
2018-10-21T04:47:50.071Z,67.45
2018-10-21T04:50:20.072Z,67.32
2018-10-21T04:52:50.009Z,67.51
2018-10-21T04:55:20.007Z,67.45
2018-10-21T04:57:49.943Z,67.39
2018-10-21T05:00:20.811Z,67.94
2018-10-21T05:02:50.775Z,67.60
2018-10-21T05:05:21.030Z,67.70
2018-10-21T05:07:51.063Z,67.27
2018-10-21T05:10:29.064Z,67.71
2018-10-21T05:12:58.805Z,67.30
2018-10-21T05:15:29.626Z,67.27
2018-10-21T05:17:59.719Z,67.41
2018-10-21T05:20:29.334Z,67.61
2018-10-21T05:22:59.536Z,67.35
2018-10-21T05:25:29.465Z,67.38
2018-10-21T05:27:59.667Z,67.12
2018-10-21T05:30:29.566Z,67.03
2018-10-21T05:32:59.557Z,67.02
2018-10-21T05:35:29.545Z,67.40
2018-10-21T05:37:59.596Z,67.25
2018-10-21T05:40:29.529Z,67.17
2018-10-21T05:42:59.504Z,67.37
2018-10-21T05:45:29.464Z,67.78
2018-10-21T05:47:59.453Z,67.55
2018-10-21T05:50:29.430Z,67.42
2018-10-21T05:52:59.430Z,67.22
2018-10-21T05:55:29.373Z,67.80
2018-10-21T05:57:59.403Z,68.03
2018-10-21T06:00:30.221Z,67.71
2018-10-21T06:03:00.205Z,67.92
2018-10-21T06:05:38.095Z,68.11
2018-10-21T06:08:08.237Z,68.06
2018-10-21T06:10:37.937Z,67.81
2018-10-21T06:13:08.222Z,67.48
2018-10-21T06:15:38.381Z,67.79
2018-10-21T06:18:12.506Z,67.79
2018-10-21T06:20:46.034Z,67.46
2018-10-21T06:23:16.010Z,67.55
2018-10-21T06:25:45.963Z,67.40
2018-10-21T06:28:15.934Z,67.46
2018-10-21T06:30:45.883Z,67.56
2018-10-21T06:33:15.835Z,67.47
2018-10-21T06:35:45.772Z,67.77
2018-10-21T06:38:15.728Z,67.61
2018-10-21T06:40:45.744Z,67.56
2018-10-21T06:43:15.714Z,68.17
2018-10-21T06:45:45.621Z,68.06
2018-10-21T06:48:15.494Z,68.28
2018-10-21T06:50:45.565Z,68.45
2018-10-21T06:53:16.088Z,68.38
2018-10-21T06:55:46.033Z,68.41
2018-10-21T06:58:15.990Z,68.84
2018-10-21T07:00:45.938Z,68.53
2018-10-21T07:03:15.923Z,68.22
2018-10-21T07:06:19.553Z,68.52
2018-10-21T07:08:49.962Z,68.25
2018-10-21T07:11:19.667Z,68.58
2018-10-21T07:13:49.854Z,68.49
2018-10-21T07:16:19.841Z,68.53
2018-10-21T07:18:49.896Z,68.44
2018-10-21T07:21:19.973Z,68.32
2018-10-21T07:23:49.930Z,68.58
2018-10-21T07:26:20.701Z,68.55
2018-10-21T07:28:50.739Z,68.95
2018-10-21T07:31:20.694Z,68.84
2018-10-21T07:33:50.835Z,68.90
2018-10-21T07:36:20.824Z,69.05
2018-10-21T07:38:50.813Z,69.16
2018-10-21T07:41:20.775Z,68.87
2018-10-21T07:43:50.768Z,69.10
2018-10-21T07:46:20.752Z,69.78
2018-10-21T07:48:50.856Z,70.45
2018-10-21T07:51:20.807Z,69.55
2018-10-21T07:53:50.825Z,69.98
2018-10-21T07:56:20.818Z,69.94
2018-10-21T07:58:50.850Z,69.49
2018-10-21T08:01:20.907Z,69.25
2018-10-21T08:03:51.161Z,69.70
2018-10-21T08:06:38.298Z,69.68
2018-10-21T08:09:11.518Z,69.77
2018-10-21T08:11:41.474Z,69.63
2018-10-21T08:14:11.745Z,69.46
2018-10-21T08:16:41.776Z,69.59
2018-10-21T08:19:11.844Z,69.79
2018-10-21T08:21:41.895Z,69.90
2018-10-21T08:24:12.212Z,69.63
2018-10-21T08:26:43.055Z,70.08
2018-10-21T08:29:13.063Z,70.04
2018-10-21T08:31:43.286Z,69.95
2018-10-21T08:34:13.395Z,68.92
2018-10-21T08:36:43.420Z,69.48
2018-10-21T08:39:13.429Z,68.81
2018-10-21T08:41:43.499Z,68.33
2018-10-21T08:44:13.491Z,67.66
2018-10-21T08:46:43.640Z,67.71
2018-10-21T08:49:13.616Z,67.40
2018-10-21T08:51:43.608Z,66.78
2018-10-21T08:54:13.618Z,67.11
2018-10-21T08:56:43.650Z,66.88
2018-10-21T08:59:13.675Z,65.80
2018-10-21T09:01:43.661Z,65.19
2018-10-21T09:04:13.773Z,63.48
2018-10-21T09:06:43.802Z,64.63
2018-10-21T09:09:13.946Z,64.69
2018-10-21T09:11:43.947Z,63.21
2018-10-21T09:14:14.107Z,63.34
2018-10-21T09:16:44.232Z,62.06
2018-10-21T09:19:14.321Z,62.12
2018-10-21T09:21:44.276Z,61.09
2018-10-21T09:24:14.287Z,61.07
2018-10-21T09:26:44.289Z,59.87
2018-10-21T09:29:14.338Z,59.29
2018-10-21T09:31:44.407Z,59.34
2018-10-21T09:34:14.669Z,58.59
2018-10-21T09:36:44.615Z,58.70
2018-10-21T09:39:15.505Z,57.66
2018-10-21T09:41:45.485Z,58.56
2018-10-21T09:44:15.514Z,57.48
2018-10-21T09:46:45.590Z,57.04
2018-10-21T09:49:15.667Z,56.33
2018-10-21T09:51:45.647Z,55.72
2018-10-21T09:54:15.684Z,55.53
2018-10-21T09:56:45.717Z,56.08
2018-10-21T09:59:15.772Z,55.14
2018-10-21T10:01:50.698Z,55.40
2018-10-21T10:04:20.864Z,54.29
2018-10-21T10:06:50.798Z,55.57
2018-10-21T10:09:20.869Z,52.91
2018-10-21T10:11:50.840Z,53.75
2018-10-21T10:14:20.852Z,51.39
2018-10-21T10:16:50.798Z,53.12
2018-10-21T10:19:20.819Z,51.79
2018-10-21T10:21:50.820Z,51.69
2018-10-21T10:24:20.751Z,51.17
2018-10-21T10:26:50.742Z,50.54
2018-10-21T10:29:20.813Z,51.32
2018-10-21T10:31:50.815Z,51.44
2018-10-21T10:34:20.878Z,50.51
2018-10-21T10:36:50.943Z,49.28
2018-10-21T10:39:20.967Z,49.58
2018-10-21T10:41:51.054Z,50.08
2018-10-21T10:44:21.029Z,49.74
2018-10-21T10:46:51.017Z,48.05
2018-10-21T10:49:21.023Z,48.69
2018-10-21T10:51:51.072Z,48.20
2018-10-21T10:54:21.093Z,48.22
2018-10-21T10:56:51.154Z,47.49
2018-10-21T10:59:21.240Z,47.42
2018-10-21T11:01:51.268Z,46.90
2018-10-21T11:04:21.306Z,46.63
2018-10-21T11:06:51.333Z,46.27
2018-10-21T11:09:21.307Z,46.68
2018-10-21T11:11:51.323Z,45.54
2018-10-21T11:14:21.318Z,45.43
2018-10-21T11:16:51.368Z,45.94
2018-10-21T11:19:25.289Z,45.76
2018-10-21T11:21:55.545Z,45.59
2018-10-21T11:24:25.490Z,44.96
2018-10-21T11:26:55.539Z,45.09
2018-10-21T11:29:28.441Z,44.55
2018-10-21T11:31:58.463Z,44.06
2018-10-21T11:34:28.512Z,43.61
2018-10-21T11:36:58.495Z,43.55
2018-10-21T11:39:28.686Z,42.73
2018-10-21T11:41:58.716Z,43.77
2018-10-21T11:44:28.752Z,42.54
2018-10-21T11:46:58.816Z,42.40
2018-10-21T11:49:28.850Z,42.88
2018-10-21T11:51:58.895Z,43.49
2018-10-21T11:54:28.869Z,43.33
2018-10-21T11:56:58.959Z,42.17
2018-10-21T11:59:29.059Z,42.82
2018-10-21T12:01:59.131Z,41.50
2018-10-21T12:04:29.261Z,42.01
2018-10-21T12:06:59.331Z,42.08
2018-10-21T12:09:29.294Z,41.63
2018-10-21T12:11:59.314Z,41.32
2018-10-21T12:14:29.339Z,39.98
2018-10-21T12:16:59.337Z,40.83
2018-10-21T12:19:29.293Z,40.18
2018-10-21T12:21:59.371Z,40.43
2018-10-21T12:24:29.278Z,40.02
2018-10-21T12:26:59.360Z,40.07
2018-10-21T12:29:29.389Z,40.54
2018-10-21T12:31:59.393Z,40.37
2018-10-21T12:34:29.411Z,41.14
2018-10-21T12:36:59.852Z,41.12
2018-10-21T12:39:29.799Z,40.52
2018-10-21T12:41:59.887Z,39.97
2018-10-21T12:44:29.931Z,39.33
2018-10-21T12:46:59.991Z,39.78
2018-10-21T12:49:29.991Z,38.65
2018-10-21T12:52:00.023Z,40.01
2018-10-21T12:54:30.099Z,40.80
2018-10-21T12:57:00.064Z,38.13
2018-10-21T12:59:30.396Z,38.30
2018-10-21T13:02:00.362Z,38.86
2018-10-21T13:04:30.391Z,38.84
2018-10-21T13:07:00.524Z,38.52
2018-10-21T13:09:30.539Z,38.11
2018-10-21T13:12:00.530Z,38.39
2018-10-21T13:14:30.538Z,38.63
2018-10-21T13:17:00.625Z,38.89
2018-10-21T13:19:30.669Z,39.28
2018-10-21T13:22:00.782Z,38.51
2018-10-21T13:24:30.775Z,38.22
2018-10-21T13:27:00.826Z,38.61
2018-10-21T13:29:30.846Z,38.63
2018-10-21T13:32:00.886Z,38.50
2018-10-21T13:34:30.943Z,38.87
2018-10-21T13:37:01.027Z,38.83
2018-10-21T13:39:31.130Z,39.00
2018-10-21T13:42:01.173Z,39.10
2018-10-21T13:44:31.169Z,38.17
2018-10-21T13:47:01.276Z,38.71
2018-10-21T13:49:31.337Z,39.06
2018-10-21T13:52:01.531Z,38.63
2018-10-21T13:54:31.430Z,38.83
2018-10-21T13:57:01.409Z,38.48
2018-10-21T13:59:31.727Z,38.23
2018-10-21T14:02:01.780Z,38.29
2018-10-21T14:04:31.827Z,38.37
2018-10-21T14:07:02.002Z,38.51
2018-10-21T14:09:31.963Z,39.31
2018-10-21T14:12:02.039Z,38.54
2018-10-21T14:14:32.047Z,38.70
2018-10-21T14:17:02.153Z,38.71
2018-10-21T14:19:32.228Z,38.65
2018-10-21T14:22:02.312Z,37.86
2018-10-21T14:24:32.355Z,39.20
2018-10-21T14:27:02.407Z,38.32
2018-10-21T14:29:32.703Z,38.57
2018-10-21T14:32:02.723Z,39.50
2018-10-21T14:34:32.722Z,39.42
2018-10-21T14:37:02.787Z,38.65
2018-10-21T14:39:32.853Z,39.06
2018-10-21T14:42:03.014Z,39.15
2018-10-21T14:44:33.002Z,38.89
2018-10-21T14:47:03.052Z,38.81
2018-10-21T14:49:33.086Z,40.30
2018-10-21T14:52:03.069Z,38.38
2018-10-21T14:54:33.106Z,38.02
2018-10-21T14:57:03.181Z,39.33
2018-10-21T14:59:33.166Z,40.79
2018-10-21T15:02:03.241Z,41.05
2018-10-21T15:04:33.253Z,39.94
2018-10-21T15:07:03.231Z,39.08
2018-10-21T15:09:34.541Z,39.21
2018-10-21T15:12:04.895Z,39.62
2018-10-21T15:14:34.851Z,40.87
2018-10-21T15:17:04.932Z,41.72
2018-10-21T15:19:35.034Z,41.24
2018-10-21T15:22:05.458Z,40.28
2018-10-21T15:24:35.596Z,41.32
2018-10-21T15:27:05.853Z,41.55
2018-10-21T15:29:35.948Z,41.57
2018-10-21T15:32:06.622Z,42.76
2018-10-21T15:34:36.841Z,43.28
2018-10-21T15:37:06.984Z,44.20
2018-10-21T15:39:37.215Z,44.35
2018-10-21T15:42:07.444Z,44.78
2018-10-21T15:44:37.436Z,45.36
2018-10-21T15:47:07.675Z,45.23
2018-10-21T15:49:37.711Z,45.84
2018-10-21T15:52:07.674Z,45.33
2018-10-21T15:54:37.775Z,45.91
2018-10-21T15:57:07.843Z,46.15
2018-10-21T15:59:37.923Z,45.32
2018-10-21T16:02:08.117Z,45.47
2018-10-21T16:04:38.090Z,46.08
2018-10-21T16:07:08.086Z,46.67
2018-10-21T16:09:38.187Z,46.87
2018-10-21T16:12:08.161Z,46.42
2018-10-21T16:14:38.275Z,47.64
2018-10-21T16:17:08.184Z,48.15
2018-10-21T16:19:38.252Z,49.27
2018-10-21T16:22:08.560Z,48.11
2018-10-21T16:24:38.532Z,48.76
2018-10-21T16:27:08.625Z,48.63
2018-10-21T16:29:38.709Z,49.04
2018-10-21T16:32:08.940Z,49.71
2018-10-21T16:34:38.802Z,50.72
2018-10-21T16:37:08.789Z,50.93
2018-10-21T16:39:38.829Z,50.72
2018-10-21T16:42:08.843Z,50.99
2018-10-21T16:44:38.910Z,50.96
2018-10-21T16:47:08.992Z,50.94
2018-10-21T16:49:39.047Z,52.04
2018-10-21T16:52:09.082Z,52.33
2018-10-21T16:54:39.206Z,52.86
2018-10-21T16:57:09.192Z,52.90
2018-10-21T16:59:39.186Z,52.81
2018-10-21T17:02:09.115Z,52.74
2018-10-21T17:04:39.130Z,53.00
2018-10-21T17:07:09.225Z,52.76
2018-10-21T17:09:39.483Z,53.13
2018-10-21T17:12:09.344Z,53.37
2018-10-21T17:14:39.398Z,53.37
2018-10-21T17:17:09.564Z,54.03
2018-10-21T17:19:39.597Z,53.77
2018-10-21T17:22:09.693Z,54.17
2018-10-21T17:24:39.642Z,54.41
2018-10-21T17:27:09.665Z,54.72
2018-10-21T17:29:39.735Z,54.92
2018-10-21T17:32:09.875Z,55.07
2018-10-21T17:34:39.943Z,54.88
2018-10-21T17:37:10.146Z,55.21
2018-10-21T17:39:40.120Z,55.05
2018-10-21T17:42:10.303Z,55.37
2018-10-21T17:44:40.372Z,55.71
2018-10-21T17:47:10.485Z,55.89
2018-10-21T17:49:40.603Z,56.02
2018-10-21T17:52:10.748Z,56.64
2018-10-21T17:54:40.747Z,56.33
2018-10-21T17:57:10.876Z,56.61
2018-10-21T17:59:40.962Z,56.71
2018-10-21T18:02:11.075Z,57.25
2018-10-21T18:04:41.143Z,57.14
2018-10-21T18:07:11.317Z,57.11
2018-10-21T18:09:41.278Z,57.22
2018-10-21T18:12:11.469Z,57.12
2018-10-21T18:14:41.572Z,57.39
2018-10-21T18:17:11.635Z,58.05
2018-10-21T18:19:41.688Z,58.12
2018-10-21T18:22:11.776Z,58.01
2018-10-21T18:24:41.786Z,57.65
2018-10-21T18:27:11.935Z,57.87
2018-10-21T18:29:42.094Z,57.96
2018-10-21T18:32:12.200Z,58.38
2018-10-21T18:34:42.377Z,58.63
2018-10-21T18:37:12.457Z,58.35
2018-10-21T18:39:42.555Z,58.73
2018-10-21T18:42:12.632Z,58.57
2018-10-21T18:44:42.740Z,59.29
2018-10-21T18:47:13.073Z,58.94
2018-10-21T18:49:43.353Z,59.21
2018-10-21T18:52:13.594Z,59.52
2018-10-21T18:54:44.071Z,59.79
2018-10-21T18:57:14.608Z,59.89
2018-10-21T18:59:44.909Z,59.93
2018-10-21T19:02:15.153Z,59.61
2018-10-21T19:04:45.768Z,60.27
2018-10-21T19:07:16.288Z,59.74
2018-10-21T19:09:46.370Z,60.10
2018-10-21T19:12:17.311Z,60.20
2018-10-21T19:14:47.601Z,59.77
2018-10-21T19:17:17.703Z,60.20
2018-10-21T19:19:47.952Z,59.82
2018-10-21T19:22:18.228Z,59.94
2018-10-21T19:24:48.409Z,60.66
2018-10-21T19:27:18.560Z,60.77
2018-10-21T19:29:48.765Z,60.85
2018-10-21T19:32:18.882Z,60.87
2018-10-21T19:34:49.038Z,61.01
2018-10-21T19:37:19.091Z,61.09
2018-10-21T19:39:49.204Z,61.22
2018-10-21T19:42:19.247Z,61.47
2018-10-21T19:44:49.366Z,61.47
2018-10-21T19:47:19.363Z,61.39
2018-10-21T19:49:49.472Z,61.26
2018-10-21T19:52:19.529Z,61.57
2018-10-21T19:54:49.554Z,61.79
2018-10-21T19:57:19.698Z,62.00
2018-10-21T19:59:49.784Z,61.95
2018-10-21T20:02:19.911Z,61.99
2018-10-21T20:04:50.081Z,61.87
2018-10-21T20:07:20.111Z,62.09
2018-10-21T20:09:50.207Z,62.40
2018-10-21T20:12:20.214Z,62.34
2018-10-21T20:14:50.342Z,62.42
2018-10-21T20:17:20.372Z,62.82
2018-10-21T20:19:50.499Z,62.78
2018-10-21T20:22:20.560Z,62.49
2018-10-21T20:24:50.610Z,62.64
2018-10-21T20:27:20.749Z,63.00
2018-10-21T20:29:50.788Z,62.57
2018-10-21T20:32:20.843Z,63.05
2018-10-21T20:34:50.903Z,62.55
2018-10-21T20:37:20.965Z,63.06
2018-10-21T20:39:51.207Z,62.94
2018-10-21T20:42:21.216Z,62.82
2018-10-21T20:44:51.240Z,63.25
2018-10-21T20:47:21.760Z,62.86
2018-10-21T20:49:51.784Z,62.21
2018-10-21T20:52:21.763Z,63.38
2018-10-21T20:54:51.749Z,62.66
2018-10-21T20:57:21.740Z,62.62
2018-10-21T20:59:51.715Z,62.75
2018-10-21T21:02:21.772Z,63.08
2018-10-21T21:04:51.842Z,63.22
2018-10-21T21:07:21.860Z,62.93
2018-10-21T21:09:52.006Z,62.95
2018-10-21T21:12:22.154Z,63.39
2018-10-21T21:14:52.257Z,63.11
2018-10-21T21:17:22.343Z,63.05
2018-10-21T21:19:52.401Z,63.26
2018-10-21T21:22:22.371Z,63.11
2018-10-21T21:24:52.354Z,62.97
2018-10-21T21:27:22.400Z,63.01
2018-10-21T21:29:52.408Z,63.48
2018-10-21T21:32:22.476Z,64.23
2018-10-21T21:34:52.503Z,63.72
2018-10-21T21:37:22.534Z,63.71
2018-10-21T21:39:52.666Z,63.61
2018-10-21T21:42:22.670Z,63.35
2018-10-21T21:44:52.737Z,63.59
2018-10-21T21:47:24.878Z,63.60
2018-10-21T21:49:54.929Z,63.41
2018-10-21T21:52:25.007Z,63.48
2018-10-21T21:54:55.010Z,64.47
2018-10-21T21:57:25.041Z,64.29
2018-10-21T21:59:55.087Z,64.81
2018-10-21T22:02:25.157Z,64.46
2018-10-21T22:04:55.280Z,64.51
2018-10-21T22:07:25.327Z,64.76
2018-10-21T22:09:55.393Z,64.54
2018-10-21T22:12:25.548Z,64.71
2018-10-21T22:14:55.769Z,64.29
2018-10-21T22:17:25.834Z,64.14
2018-10-21T22:19:55.875Z,64.31
2018-10-21T22:22:25.883Z,64.45
2018-10-21T22:24:55.916Z,64.88
2018-10-21T22:27:25.953Z,64.86
2018-10-21T22:29:56.040Z,65.24
2018-10-21T22:32:26.088Z,65.67
2018-10-21T22:34:56.105Z,65.61
2018-10-21T22:37:26.155Z,66.03
2018-10-21T22:39:56.172Z,66.19
2018-10-21T22:42:26.327Z,66.52
2018-10-21T22:44:56.280Z,66.36
2018-10-21T22:47:27.129Z,66.19
2018-10-21T22:49:57.145Z,65.76
2018-10-21T22:52:27.198Z,65.75
2018-10-21T22:54:57.218Z,66.21
2018-10-21T22:57:27.272Z,65.58
2018-10-21T22:59:57.323Z,66.07
2018-10-21T23:02:27.310Z,66.05
2018-10-21T23:04:57.369Z,66.23
2018-10-21T23:07:27.629Z,65.82
2018-10-21T23:09:57.701Z,65.98
2018-10-21T23:12:27.666Z,65.77
2018-10-21T23:14:57.724Z,66.31
2018-10-21T23:17:27.728Z,66.65
2018-10-21T23:19:57.849Z,66.61
2018-10-21T23:22:27.922Z,66.32
2018-10-21T23:24:58.045Z,66.38
2018-10-21T23:27:28.163Z,66.50
2018-10-21T23:29:58.214Z,66.22
2018-10-21T23:32:28.338Z,66.06
2018-10-21T23:34:58.338Z,66.30
2018-10-21T23:37:28.398Z,66.45
2018-10-21T23:39:58.533Z,66.78
2018-10-21T23:42:28.483Z,66.72
2018-10-21T23:44:58.567Z,66.57
2018-10-21T23:47:28.634Z,66.71
2018-10-21T23:49:58.703Z,66.51
2018-10-21T23:52:28.820Z,66.36
2018-10-21T23:54:58.883Z,66.27
2018-10-21T23:57:28.993Z,66.46
2018-10-21T23:59:59.066Z,66.52
